Overview Statistics Trail Chart Weather Telemetry Raw packets
 

This is the latest recevied weather packets stored in our database for station/object KJ5FA-9. If no packets are shown the sender has not sent any weather packets the latest 10 day(s).

<< 4 5 6 7 8 9 10 >>
Time Temp. Humidity Pressure Rain* Wind** Luminosity Snow
1788313764 30.56° C 56% 1015.6 hPa 0 mm - - -
1788312294 31.11° C 53% 1015.5 hPa 0 mm - - -
1788310764 31.67° C 50% 1015.4 hPa 0 mm - - -
1788309272 32.78° C 48% 1015.3 hPa 0 mm - - -
1788307764 33.89° C 46% 1015.5 hPa 0 mm - - -
1788306264 34.44° C 45% 1015.4 hPa 0 mm - - -
1788304764 35° C 43% 1015.7 hPa 0 mm - - -
1788303264 35.56° C 43% 1015.6 hPa 0 mm - - -
1788300264 36.67° C 42% 1015.3 hPa 0 mm - - -
1788297265 37.78° C 41% 1015.7 hPa 0 mm - - -
1788295766 36.11° C 43% 1016.2 hPa 0 mm - - -
1788294265 36.67° C 42% 1016.5 hPa 0 mm - - -
1788292765 37.22° C 39% 1016.2 hPa 0 mm - - -
1788291266 37.22° C 40% 1016.7 hPa 0 mm - - -
1788289765 35.56° C 46% 1016.9 hPa 0 mm - - -
1788288264 35.56° C 45% 1017.4 hPa 0 mm - - -
1788285264 35° C 47% 1018.3 hPa 0 mm - - -
1788283765 35° C 47% 1018.6 hPa 0 mm - - -
1788282265 34.44° C 47% 1018.8 hPa 0 mm - - -
1788280765 35° C 48% 1019.1 hPa 0 mm - - -
1788279265 33.33° C 52% 1019.4 hPa 0 mm - - -
1788277762 32.22° C 55% 1019.5 hPa 0 mm - - -
1788276264 31.11° C 61% 1019.7 hPa 0 mm - - -
1788274765 30.56° C 63% 1019.6 hPa 0 mm - - -
1788273265 29.44° C 67% 1019.8 hPa 0 mm - - -

* Rain latest hour (hover to see other rain measurements)
** Current wind speed in m/s (hover to see current wind gust speed)